createdAt,value
2023-05-21T00:02:59.272Z,18.30
2023-05-21T00:06:23.334Z,18.30
2023-05-21T00:09:44.746Z,18.40
2023-05-21T00:13:06.080Z,18.40
2023-05-21T00:16:27.509Z,18.30
2023-05-21T00:19:50.181Z,18.30
2023-05-21T00:23:12.848Z,18.30
2023-05-21T00:26:34.110Z,18.30
2023-05-21T00:29:55.348Z,18.30
2023-05-21T00:33:16.548Z,18.20
2023-05-21T00:36:38.211Z,18.10
2023-05-21T00:40:01.377Z,18.00
2023-05-21T00:43:26.737Z,17.80
2023-05-21T00:46:49.019Z,17.80
2023-05-21T00:50:10.822Z,17.80
2023-05-21T00:53:35.164Z,17.60
2023-05-21T00:56:58.620Z,17.70
2023-05-21T01:00:20.480Z,17.80
2023-05-21T01:03:42.195Z,17.90
2023-05-21T01:07:04.287Z,17.80
2023-05-21T01:10:26.249Z,17.90
2023-05-21T01:13:51.414Z,17.90
2023-05-21T01:17:13.298Z,17.90
2023-05-21T01:20:36.357Z,18.00
2023-05-21T01:23:59.952Z,18.00
2023-05-21T01:27:21.206Z,18.00
2023-05-21T01:30:42.933Z,18.00
2023-05-21T01:34:10.964Z,18.00
2023-05-21T01:37:39.912Z,17.90
2023-05-21T01:41:11.664Z,17.90
2023-05-21T01:44:36.732Z,18.00
2023-05-21T01:47:59.330Z,17.90
2023-05-21T01:51:21.839Z,17.90
2023-05-21T01:54:43.162Z,17.90
2023-05-21T01:58:05.834Z,17.80
2023-05-21T02:01:27.599Z,17.80
2023-05-21T02:04:50.227Z,17.80
2023-05-21T02:08:13.075Z,17.80
2023-05-21T02:11:34.452Z,17.80
2023-05-21T02:14:57.691Z,17.80
2023-05-21T02:18:21.489Z,17.70
2023-05-21T02:21:42.814Z,17.70
2023-05-21T02:25:04.222Z,17.70
2023-05-21T02:28:25.574Z,17.70
2023-05-21T02:31:48.263Z,17.70
2023-05-21T02:35:10.871Z,17.70
2023-05-21T02:38:33.070Z,17.70
2023-05-21T02:41:54.378Z,17.70
2023-05-21T02:45:17.678Z,17.80
2023-05-21T02:48:40.246Z,17.70
2023-05-21T02:52:01.578Z,17.70
2023-05-21T02:55:22.923Z,17.70
2023-05-21T02:58:44.224Z,17.70
2023-05-21T03:02:05.709Z,17.70
2023-05-21T03:05:35.496Z,17.70
2023-05-21T03:09:12.237Z,17.70
2023-05-21T03:12:42.571Z,17.60
2023-05-21T03:16:14.289Z,17.60
2023-05-21T03:19:38.606Z,17.60
2023-05-21T03:23:21.636Z,17.60
2023-05-21T03:26:48.463Z,17.60
2023-05-21T03:30:13.531Z,17.60
2023-05-21T03:33:35.141Z,17.60
2023-05-21T03:36:56.629Z,17.70
2023-05-21T03:40:19.504Z,17.70
2023-05-21T03:43:40.787Z,17.80
2023-05-21T03:47:02.145Z,17.90
2023-05-21T03:50:23.393Z,18.10
2023-05-21T03:53:44.714Z,18.30
2023-05-21T03:57:07.417Z,18.50
2023-05-21T04:00:28.723Z,18.60
2023-05-21T04:03:50.095Z,18.70
2023-05-21T04:07:14.676Z,18.90
2023-05-21T04:10:36.111Z,19.10
2023-05-21T04:13:59.006Z,19.40
2023-05-21T04:17:21.233Z,19.40
2023-05-21T04:20:42.770Z,19.70
2023-05-21T04:24:04.629Z,19.80
2023-05-21T04:27:26.424Z,20.30
2023-05-21T04:30:49.995Z,20.50
2023-05-21T04:34:11.289Z,20.80
2023-05-21T04:37:35.327Z,20.90
2023-05-21T04:40:58.888Z,21.00
2023-05-21T04:44:20.181Z,20.70
2023-05-21T04:47:44.223Z,20.60
2023-05-21T04:51:06.919Z,20.80
2023-05-21T04:54:28.225Z,20.60
2023-05-21T04:57:49.490Z,20.80
2023-05-21T05:01:10.970Z,21.50
2023-05-21T05:04:34.160Z,21.90
2023-05-21T05:07:56.040Z,22.50
2023-05-21T05:11:17.591Z,23.30
2023-05-21T05:14:38.819Z,23.10
2023-05-21T05:18:00.238Z,22.60
2023-05-21T05:21:23.582Z,23.60
2023-05-21T05:24:44.906Z,23.90
2023-05-21T05:28:06.401Z,24.40
2023-05-21T05:31:27.716Z,24.60
2023-05-21T05:34:49.208Z,24.40
2023-05-21T05:38:12.164Z,24.60
2023-05-21T05:41:33.419Z,24.40
2023-05-21T05:44:54.696Z,25.10
2023-05-21T05:48:16.945Z,25.70
2023-05-21T05:51:39.010Z,26.00
2023-05-21T05:55:01.673Z,25.60
2023-05-21T05:58:22.907Z,26.50
2023-05-21T06:01:44.156Z,26.20
2023-05-21T06:05:06.930Z,25.30
2023-05-21T06:08:28.494Z,25.70
2023-05-21T06:11:51.175Z,25.10
2023-05-21T06:15:15.033Z,25.00
2023-05-21T06:18:36.321Z,25.20
2023-05-21T06:21:57.775Z,25.20
2023-05-21T06:25:19.056Z,25.50
2023-05-21T06:28:41.721Z,24.90
2023-05-21T06:32:02.928Z,25.90
2023-05-21T06:35:24.351Z,26.30
2023-05-21T06:38:45.681Z,24.70
2023-05-21T06:42:07.305Z,24.80
2023-05-21T06:45:29.891Z,25.20
2023-05-21T06:48:51.172Z,26.30
2023-05-21T06:52:12.411Z,26.40
2023-05-21T06:55:38.760Z,25.50
2023-05-21T06:59:00.175Z,25.40
2023-05-21T07:02:22.891Z,26.80
2023-05-21T07:05:44.293Z,25.60
2023-05-21T07:09:06.203Z,25.30
2023-05-21T07:12:27.505Z,25.90
2023-05-21T07:15:48.832Z,25.40
2023-05-21T07:19:13.122Z,25.80
2023-05-21T07:22:34.430Z,26.00
2023-05-21T07:25:55.803Z,25.80
2023-05-21T07:29:17.114Z,25.80
2023-05-21T07:32:38.526Z,25.60
2023-05-21T07:36:01.828Z,25.80
2023-05-21T07:39:23.317Z,26.70
2023-05-21T07:42:44.841Z,28.00
2023-05-21T07:46:06.211Z,27.60
2023-05-21T07:49:27.531Z,27.70
2023-05-21T07:52:50.304Z,26.60
2023-05-21T07:56:11.710Z,27.00
2023-05-21T07:59:33.763Z,27.90
2023-05-21T08:02:55.193Z,28.10
2023-05-21T08:06:16.542Z,28.20
2023-05-21T08:09:39.242Z,27.10
2023-05-21T08:13:01.542Z,27.40
2023-05-21T08:16:23.537Z,27.10
2023-05-21T08:19:45.106Z,26.90
2023-05-21T08:23:06.565Z,27.50
2023-05-21T08:26:29.264Z,28.30
2023-05-21T08:29:50.521Z,28.00
2023-05-21T08:33:11.903Z,27.80
2023-05-21T08:36:33.163Z,28.20
2023-05-21T08:39:54.649Z,28.50
2023-05-21T08:43:29.101Z,29.20
2023-05-21T08:46:52.119Z,29.30
2023-05-21T08:50:20.347Z,28.70
2023-05-21T08:53:42.373Z,28.90
2023-05-21T08:57:04.697Z,29.20
2023-05-21T09:00:27.442Z,28.80
2023-05-21T09:03:49.655Z,29.50
2023-05-21T09:07:11.249Z,30.00
2023-05-21T09:10:42.732Z,29.30
2023-05-21T09:14:05.441Z,28.30
2023-05-21T09:17:28.227Z,27.80
2023-05-21T09:21:21.922Z,27.40
2023-05-21T09:24:49.501Z,27.80
2023-05-21T09:28:13.260Z,27.90
2023-05-21T09:31:44.289Z,27.60
2023-05-21T09:35:09.616Z,28.20
2023-05-21T09:38:35.323Z,27.40
2023-05-21T09:41:59.186Z,26.80
2023-05-21T09:45:20.964Z,27.30
2023-05-21T09:48:45.050Z,27.60
2023-05-21T09:52:08.156Z,27.60
2023-05-21T09:55:30.159Z,27.90
2023-05-21T09:58:55.050Z,27.70
2023-05-21T10:02:19.510Z,28.10
2023-05-21T10:05:44.567Z,28.40
2023-05-21T10:09:08.901Z,28.10
2023-05-21T10:12:31.796Z,28.20
2023-05-21T10:16:00.691Z,28.00
2023-05-21T10:19:24.995Z,27.60
2023-05-21T10:22:49.088Z,27.70
2023-05-21T10:26:11.580Z,27.80
2023-05-21T10:29:33.711Z,27.30
2023-05-21T10:32:57.263Z,27.40
2023-05-21T10:36:19.329Z,27.00
2023-05-21T10:39:43.852Z,27.80
2023-05-21T10:43:22.958Z,27.80
2023-05-21T10:47:30.256Z,27.30
2023-05-21T10:51:14.111Z,27.80
2023-05-21T10:55:03.487Z,27.90
2023-05-21T10:59:12.894Z,27.40
2023-05-21T11:02:35.820Z,26.80
2023-05-21T11:05:57.760Z,26.90
2023-05-21T11:09:21.958Z,27.00
2023-05-21T11:13:01.150Z,26.90
2023-05-21T11:16:25.978Z,26.80
2023-05-21T11:19:57.154Z,26.80
2023-05-21T11:23:21.978Z,26.80
2023-05-21T11:27:05.795Z,26.90
2023-05-21T11:30:42.103Z,26.50
2023-05-21T11:34:17.274Z,26.60
2023-05-21T11:37:41.868Z,26.70
2023-05-21T11:41:22.335Z,27.30
2023-05-21T11:44:57.417Z,27.40
2023-05-21T11:48:19.598Z,26.80
2023-05-21T11:51:41.840Z,26.20
2023-05-21T11:55:05.651Z,26.00
2023-05-21T11:58:32.520Z,26.40
2023-05-21T12:01:53.977Z,26.10
2023-05-21T12:05:15.591Z,26.40
2023-05-21T12:08:40.203Z,26.70
2023-05-21T12:12:01.819Z,26.60
2023-05-21T12:15:25.254Z,26.20
2023-05-21T12:18:46.865Z,26.30
2023-05-21T12:22:08.607Z,26.40
2023-05-21T12:25:32.154Z,26.60
2023-05-21T12:28:55.379Z,26.50
2023-05-21T12:32:18.822Z,26.60
2023-05-21T12:35:41.204Z,26.50
2023-05-21T12:39:02.557Z,26.20
2023-05-21T12:42:27.830Z,26.30
2023-05-21T12:45:49.222Z,26.20
2023-05-21T12:49:26.768Z,26.30
2023-05-21T12:52:51.023Z,26.30
2023-05-21T12:56:12.628Z,26.20
2023-05-21T12:59:44.865Z,26.20
2023-05-21T13:03:14.384Z,26.30
2023-05-21T13:06:43.647Z,26.50
2023-05-21T13:10:05.560Z,26.40
2023-05-21T13:13:28.004Z,26.50
2023-05-21T13:16:49.678Z,26.30
2023-05-21T13:20:12.687Z,26.40
2023-05-21T13:23:36.535Z,26.50
2023-05-21T13:26:57.917Z,26.30
2023-05-21T13:30:19.780Z,26.10
2023-05-21T13:33:41.749Z,25.80
2023-05-21T13:37:03.139Z,25.80
2023-05-21T13:40:25.978Z,26.00
2023-05-21T13:43:47.280Z,26.00
2023-05-21T13:47:09.818Z,26.10
2023-05-21T13:50:31.365Z,26.20
2023-05-21T13:53:54.457Z,26.30
2023-05-21T13:57:18.330Z,26.30
2023-05-21T14:00:43.775Z,26.30
2023-05-21T14:04:05.851Z,26.40
2023-05-21T14:07:33.119Z,26.40
2023-05-21T14:10:55.252Z,26.50
2023-05-21T14:14:19.208Z,26.40
2023-05-21T14:17:42.515Z,26.30
2023-05-21T14:21:04.887Z,26.40
2023-05-21T14:24:26.223Z,26.30
2023-05-21T14:27:47.706Z,26.10
2023-05-21T14:31:10.670Z,25.80
2023-05-21T14:34:32.725Z,25.70
2023-05-21T14:37:54.178Z,25.70
2023-05-21T14:41:15.510Z,25.80
2023-05-21T14:44:36.776Z,25.70
2023-05-21T14:47:59.620Z,26.00
2023-05-21T14:51:21.254Z,26.00
2023-05-21T14:54:42.543Z,26.00
2023-05-21T14:58:04.270Z,26.00
2023-05-21T15:01:26.323Z,25.90
2023-05-21T15:04:49.110Z,25.90
2023-05-21T15:08:10.460Z,25.90
2023-05-21T15:11:33.894Z,25.80
2023-05-21T15:14:55.178Z,25.90
2023-05-21T15:18:16.650Z,25.90
2023-05-21T15:21:39.654Z,26.00
2023-05-21T15:25:01.441Z,25.90
2023-05-21T15:28:23.220Z,26.00
2023-05-21T15:31:44.564Z,26.00
2023-05-21T15:35:06.597Z,26.00
2023-05-21T15:38:29.307Z,26.00
2023-05-21T15:41:53.591Z,26.00
2023-05-21T15:45:15.151Z,26.10
2023-05-21T15:48:36.761Z,26.00
2023-05-21T15:52:00.549Z,26.10
2023-05-21T15:55:24.142Z,26.10
2023-05-21T15:58:45.825Z,26.10
2023-05-21T16:02:07.422Z,26.10
2023-05-21T16:05:29.036Z,26.00
2023-05-21T16:08:50.479Z,25.70
2023-05-21T16:12:14.670Z,25.60
2023-05-21T16:15:36.298Z,25.50
2023-05-21T16:18:57.913Z,25.60
2023-05-21T16:22:25.110Z,25.50
2023-05-21T16:25:46.983Z,25.50
2023-05-21T16:29:09.881Z,25.60
2023-05-21T16:32:31.233Z,25.60
2023-05-21T16:35:52.821Z,25.60
2023-05-21T16:39:14.563Z,25.60
2023-05-21T16:42:39.130Z,25.50
2023-05-21T16:46:03.239Z,25.50
2023-05-21T16:49:24.716Z,25.60
2023-05-21T16:52:46.273Z,25.50
2023-05-21T16:56:07.971Z,25.50
2023-05-21T16:59:29.685Z,25.50
2023-05-21T17:02:52.786Z,25.50
2023-05-21T17:06:15.260Z,25.60
2023-05-21T17:09:36.638Z,25.50
2023-05-21T17:12:59.952Z,25.40
2023-05-21T17:16:25.604Z,25.20
2023-05-21T17:19:48.453Z,25.20
2023-05-21T17:23:09.803Z,25.00
2023-05-21T17:26:31.520Z,25.00
2023-05-21T17:29:53.007Z,25.00
2023-05-21T17:33:14.907Z,24.90
2023-05-21T17:36:37.881Z,24.80
2023-05-21T17:39:59.155Z,24.80
2023-05-21T17:43:20.433Z,24.70
2023-05-21T17:46:41.866Z,24.70
2023-05-21T17:50:03.348Z,24.60
2023-05-21T17:53:26.079Z,24.50
2023-05-21T17:56:47.391Z,24.40
2023-05-21T18:00:10.302Z,24.30
2023-05-21T18:03:31.617Z,24.20
2023-05-21T18:06:52.956Z,24.10
2023-05-21T18:10:16.294Z,24.00
2023-05-21T18:13:37.721Z,23.90
2023-05-21T18:16:59.640Z,23.80
2023-05-21T18:20:21.102Z,23.70
2023-05-21T18:23:42.433Z,23.50
2023-05-21T18:27:05.252Z,23.20
2023-05-21T18:30:26.552Z,23.20
2023-05-21T18:33:48.302Z,23.20
2023-05-21T18:37:09.756Z,23.20
2023-05-21T18:40:33.293Z,23.10
2023-05-21T18:43:56.066Z,23.20
2023-05-21T18:47:17.468Z,23.20
2023-05-21T18:50:41.814Z,23.10
2023-05-21T18:54:03.088Z,23.10
2023-05-21T18:57:24.365Z,22.90
2023-05-21T19:00:47.082Z,22.90
2023-05-21T19:04:08.517Z,22.80
2023-05-21T19:07:29.735Z,22.70
2023-05-21T19:10:52.831Z,22.60
2023-05-21T19:14:14.196Z,22.50
2023-05-21T19:17:39.132Z,22.50
2023-05-21T19:21:02.174Z,22.50
2023-05-21T19:24:23.577Z,22.40
2023-05-21T19:27:44.836Z,22.40
2023-05-21T19:31:06.727Z,22.30
2023-05-21T19:34:29.457Z,22.30
2023-05-21T19:37:50.722Z,22.20
2023-05-21T19:41:11.958Z,22.10
2023-05-21T19:44:33.336Z,22.10
2023-05-21T19:47:55.629Z,22.10
2023-05-21T19:51:18.520Z,22.00
2023-05-21T19:54:39.955Z,22.00
2023-05-21T19:58:01.198Z,22.00
2023-05-21T20:01:23.525Z,21.90
2023-05-21T20:04:44.940Z,21.90
2023-05-21T20:08:07.652Z,21.90
2023-05-21T20:11:29.093Z,21.80
2023-05-21T20:14:50.656Z,21.70
2023-05-21T20:18:12.757Z,21.70
2023-05-21T20:21:34.380Z,21.60
2023-05-21T20:24:57.854Z,21.60
2023-05-21T20:28:20.584Z,21.60
2023-05-21T20:31:48.581Z,21.50
2023-05-21T20:35:10.416Z,21.50
2023-05-21T20:38:33.211Z,21.40
2023-05-21T20:41:56.218Z,21.40
2023-05-21T20:45:17.617Z,21.40
2023-05-21T20:48:41.792Z,21.20
2023-05-21T20:52:03.141Z,21.20
2023-05-21T20:55:24.532Z,21.10
2023-05-21T20:58:48.414Z,21.00
2023-05-21T21:02:12.083Z,20.90
2023-05-21T21:05:33.492Z,20.80
2023-05-21T21:08:55.550Z,20.60
2023-05-21T21:15:44.190Z,20.60
2023-05-21T21:19:05.734Z,20.60
2023-05-21T21:22:27.175Z,20.60
2023-05-21T21:25:48.583Z,20.60
2023-05-21T21:29:09.871Z,20.60
2023-05-21T21:32:32.691Z,20.50
2023-05-21T21:35:56.276Z,20.40
2023-05-21T21:39:17.984Z,20.30
2023-05-21T21:42:39.362Z,20.20
2023-05-21T21:46:04.814Z,20.20
2023-05-21T21:49:28.244Z,20.30
2023-05-21T21:52:49.553Z,20.20
2023-05-21T21:56:11.018Z,20.20
2023-05-21T21:59:32.303Z,20.00
2023-05-21T22:02:53.778Z,20.00
2023-05-21T22:06:16.498Z,20.00
2023-05-21T22:09:37.765Z,19.90
2023-05-21T22:12:59.947Z,19.80
2023-05-21T22:16:21.886Z,19.60
2023-05-21T22:19:43.129Z,19.60
2023-05-21T22:23:05.889Z,19.80
2023-05-21T22:26:27.297Z,19.80
2023-05-21T22:29:48.545Z,19.60
2023-05-21T22:33:09.891Z,19.60
2023-05-21T22:36:31.229Z,19.60
2023-05-21T22:39:53.860Z,19.60
2023-05-21T22:43:15.206Z,19.60
2023-05-21T22:46:36.750Z,19.60
2023-05-21T22:50:00.767Z,19.70
2023-05-21T22:53:23.464Z,19.70
2023-05-21T22:56:46.154Z,19.70
2023-05-21T23:00:10.877Z,19.70
2023-05-21T23:03:32.168Z,19.70
2023-05-21T23:06:53.460Z,19.70
2023-05-21T23:10:14.737Z,19.80
2023-05-21T23:13:37.461Z,19.70
2023-05-21T23:17:02.276Z,19.80
2023-05-21T23:20:24.651Z,19.80
2023-05-21T23:23:46.297Z,19.80
2023-05-21T23:27:07.687Z,19.80
2023-05-21T23:30:30.312Z,19.80
2023-05-21T23:33:52.382Z,19.80
2023-05-21T23:37:13.798Z,19.80
2023-05-21T23:40:34.991Z,19.70
2023-05-21T23:43:56.263Z,19.50
2023-05-21T23:47:18.946Z,19.30
2023-05-21T23:50:40.429Z,19.40
2023-05-21T23:54:02.128Z,19.30
2023-05-21T23:57:24.403Z,19.30
